createdAt,value
2023-03-18T00:04:09.522Z,11.77
2023-03-18T00:09:18.915Z,8.93
2023-03-18T00:14:23.922Z,10.00
2023-03-18T00:19:29.642Z,7.57
2023-03-18T00:24:37.208Z,7.80
2023-03-18T00:29:44.001Z,11.83
2023-03-18T00:34:53.182Z,7.87
2023-03-18T00:40:05.994Z,7.03
2023-03-18T00:45:13.848Z,11.00
2023-03-18T00:50:20.504Z,7.43
2023-03-18T00:55:29.132Z,6.67
2023-03-18T01:00:36.157Z,7.60
2023-03-18T01:05:45.484Z,8.63
2023-03-18T01:10:53.289Z,6.97
2023-03-18T01:15:58.824Z,10.20
2023-03-18T01:21:04.123Z,7.93
2023-03-18T01:26:16.874Z,7.90
2023-03-18T01:31:28.904Z,8.47
2023-03-18T01:36:38.824Z,10.20
2023-03-18T01:41:50.463Z,6.90
2023-03-18T01:47:04.927Z,8.63
2023-03-18T01:52:16.464Z,9.63
2023-03-18T01:57:28.398Z,8.07
2023-03-18T02:02:35.088Z,8.93
2023-03-18T02:07:43.045Z,6.70
2023-03-18T02:12:54.154Z,9.97
2023-03-18T02:18:10.852Z,10.63
2023-03-18T02:23:29.654Z,7.23
2023-03-18T02:28:40.276Z,8.60
2023-03-18T02:33:49.154Z,7.53
2023-03-18T02:38:58.284Z,8.40
2023-03-18T02:44:07.420Z,8.93
2023-03-18T02:49:24.813Z,10.03
2023-03-18T02:54:32.988Z,9.27
2023-03-18T02:59:40.526Z,14.13
2023-03-18T03:04:50.465Z,7.40
2023-03-18T03:10:00.444Z,7.73
2023-03-18T03:15:10.821Z,8.87
2023-03-18T03:20:26.110Z,10.50
2023-03-18T03:25:31.534Z,10.43
2023-03-18T03:30:40.405Z,7.03
2023-03-18T03:35:55.521Z,9.60
2023-03-18T03:41:05.198Z,14.00
2023-03-18T03:46:16.822Z,11.10
2023-03-18T03:51:24.678Z,6.97
2023-03-18T03:56:31.669Z,8.63
2023-03-18T04:01:41.271Z,6.77
2023-03-18T04:06:46.617Z,9.03
2023-03-18T04:11:57.391Z,9.00
2023-03-18T04:17:05.217Z,8.43
2023-03-18T04:22:11.593Z,8.73
2023-03-18T04:27:18.535Z,7.40
2023-03-18T04:32:26.418Z,7.90
2023-03-18T04:37:31.828Z,7.37
2023-03-18T04:42:38.972Z,9.40
2023-03-18T04:47:49.524Z,10.73
2023-03-18T04:52:57.200Z,8.67
2023-03-18T04:58:07.202Z,8.20
2023-03-18T05:03:21.324Z,6.87
2023-03-18T05:08:28.045Z,8.73
2023-03-18T05:13:35.390Z,7.90
2023-03-18T05:18:46.386Z,8.27
2023-03-18T05:23:52.131Z,6.80
2023-03-18T05:29:00.221Z,8.63
2023-03-18T05:34:17.566Z,9.63
2023-03-18T05:39:25.310Z,8.63
2023-03-18T05:44:35.622Z,8.80
2023-03-18T05:49:45.724Z,11.87
2023-03-18T05:54:55.974Z,7.53
2023-03-18T06:00:07.008Z,12.33
2023-03-18T06:05:27.281Z,7.90
2023-03-18T06:10:32.544Z,7.43
2023-03-18T06:15:41.929Z,8.67
2023-03-18T06:21:01.488Z,9.63
2023-03-18T06:26:08.849Z,13.60
2023-03-18T06:31:24.545Z,8.83
2023-03-18T06:36:33.639Z,12.87
2023-03-18T06:41:41.859Z,10.87
2023-03-18T06:47:16.837Z,5.83
2023-03-18T06:52:35.143Z,6.57
2023-03-18T06:57:49.690Z,7.37
2023-03-18T07:03:06.762Z,7.47
2023-03-18T07:08:19.008Z,7.17
2023-03-18T07:13:25.278Z,7.03
2023-03-18T07:18:31.149Z,11.93
2023-03-18T07:23:41.276Z,6.97
2023-03-18T07:28:53.542Z,10.73
2023-03-18T07:33:59.311Z,6.60
2023-03-18T07:39:07.296Z,8.27
2023-03-18T07:44:13.075Z,10.17
2023-03-18T07:49:18.611Z,7.07
2023-03-18T07:54:27.354Z,7.93
2023-03-18T07:59:35.835Z,7.27
2023-03-18T08:04:42.561Z,6.27
2023-03-18T08:09:53.492Z,8.53
2023-03-18T08:14:59.983Z,7.63
2023-03-18T08:20:06.338Z,7.30
2023-03-18T08:25:14.602Z,7.47
2023-03-18T08:30:20.560Z,6.63
2023-03-18T08:35:26.670Z,9.13
2023-03-18T08:40:34.906Z,8.70
2023-03-18T08:45:45.068Z,8.37
2023-03-18T08:50:50.093Z,9.03
2023-03-18T08:56:03.262Z,8.00
2023-03-18T09:01:10.777Z,8.63
2023-03-18T09:06:19.926Z,8.07
2023-03-18T09:11:29.787Z,9.10
2023-03-18T09:16:38.099Z,8.73
2023-03-18T09:21:49.199Z,8.60
2023-03-18T09:26:56.857Z,8.83
2023-03-18T09:32:01.968Z,8.00
2023-03-18T09:37:13.114Z,9.37
2023-03-18T09:42:47.951Z,7.20
2023-03-18T09:48:12.704Z,8.00
2023-03-18T09:53:25.056Z,9.30
2023-03-18T09:58:51.692Z,12.93
2023-03-18T10:04:04.735Z,9.70
2023-03-18T10:09:17.092Z,7.53
2023-03-18T10:14:45.479Z,7.73
2023-03-18T10:19:54.764Z,8.87
2023-03-18T10:25:10.246Z,6.87
2023-03-18T10:30:34.582Z,7.40
2023-03-18T10:35:46.536Z,10.00
2023-03-18T10:40:51.824Z,7.53
2023-03-18T10:46:04.630Z,9.40
2023-03-18T10:51:18.715Z,8.57
2023-03-18T10:56:23.996Z,7.97
2023-03-18T11:01:32.365Z,7.80
2023-03-18T11:06:45.373Z,10.97
2023-03-18T11:11:51.837Z,9.27
2023-03-18T11:17:04.635Z,7.50
2023-03-18T11:22:22.667Z,6.77
2023-03-18T11:27:32.457Z,7.73
2023-03-18T11:32:42.467Z,7.70
2023-03-18T11:37:52.441Z,9.17
2023-03-18T11:43:00.270Z,11.10
2023-03-18T11:48:15.413Z,10.90
2023-03-18T11:53:29.127Z,7.47
2023-03-18T11:58:53.687Z,9.70
2023-03-18T12:04:25.570Z,9.80
2023-03-18T12:09:42.405Z,10.97
2023-03-18T12:14:53.954Z,9.63
2023-03-18T12:20:33.520Z,9.87
2023-03-18T12:26:00.036Z,9.57
2023-03-18T12:31:15.762Z,10.17
2023-03-18T12:36:35.357Z,7.07
2023-03-18T12:41:53.389Z,10.23
2023-03-18T12:47:06.829Z,9.30
2023-03-18T12:52:31.955Z,10.43
2023-03-18T12:57:48.709Z,8.40
2023-03-18T13:03:07.739Z,11.67
2023-03-18T13:08:40.810Z,9.63
2023-03-18T13:13:53.280Z,10.17
2023-03-18T13:19:04.607Z,10.20
2023-03-18T13:24:34.671Z,8.10
2023-03-18T13:29:52.430Z,11.17
2023-03-18T13:35:19.870Z,10.43
2023-03-18T13:40:46.550Z,13.27
2023-03-18T13:45:54.002Z,12.27
2023-03-18T13:51:01.196Z,10.53
2023-03-18T13:56:29.012Z,9.80
2023-03-18T14:01:37.969Z,11.80
2023-03-18T14:06:54.392Z,11.63
2023-03-18T14:12:07.149Z,11.67
2023-03-18T14:17:25.792Z,9.10
2023-03-18T14:22:38.035Z,13.20
2023-03-18T14:27:54.961Z,11.13
2023-03-18T14:33:03.419Z,15.43
2023-03-18T14:38:15.347Z,13.27
2023-03-18T14:43:30.086Z,11.93
2023-03-18T14:48:36.916Z,11.10
2023-03-18T14:53:48.173Z,11.77
2023-03-18T14:58:57.803Z,16.00
2023-03-18T15:04:04.600Z,11.07
2023-03-18T15:09:13.393Z,9.70
2023-03-18T15:14:27.005Z,12.13
2023-03-18T15:19:35.625Z,11.60
2023-03-18T15:24:41.002Z,11.63
2023-03-18T15:29:55.966Z,10.97
2023-03-18T15:35:10.485Z,9.77
2023-03-18T15:40:36.437Z,13.00
2023-03-18T15:45:49.303Z,11.43
2023-03-18T15:50:56.273Z,12.60
2023-03-18T15:56:09.919Z,14.00
2023-03-18T16:01:21.420Z,12.10
2023-03-18T16:06:26.958Z,12.70
2023-03-18T16:11:32.147Z,11.77
2023-03-18T16:16:40.010Z,13.00
2023-03-18T16:21:45.767Z,11.87
2023-03-18T16:26:55.187Z,13.97
2023-03-18T16:32:06.712Z,13.30
2023-03-18T16:37:21.060Z,14.60
2023-03-18T16:42:27.595Z,12.57
2023-03-18T16:47:40.122Z,16.00
2023-03-18T16:52:45.374Z,15.57
2023-03-18T16:57:52.839Z,15.03
2023-03-18T17:03:01.100Z,14.33
2023-03-18T17:08:06.427Z,16.80
2023-03-18T17:13:19.975Z,16.53
2023-03-18T17:18:28.568Z,15.27
2023-03-18T17:23:34.664Z,16.17
2023-03-18T17:28:43.275Z,17.37
2023-03-18T17:33:51.438Z,16.50
2023-03-18T17:38:58.954Z,15.27
2023-03-18T17:44:03.938Z,16.57
2023-03-18T17:49:15.725Z,17.90
2023-03-18T17:54:24.450Z,17.87
2023-03-18T17:59:32.178Z,16.37
2023-03-18T18:04:42.855Z,18.47
2023-03-18T18:09:52.087Z,17.87
2023-03-18T18:14:57.332Z,15.57
2023-03-18T18:20:07.136Z,19.10
2023-03-18T18:25:19.973Z,18.43
2023-03-18T18:30:28.624Z,17.13
2023-03-18T18:35:36.570Z,19.47
2023-03-18T18:40:43.854Z,19.00
2023-03-18T18:45:49.169Z,20.13
2023-03-18T18:51:00.164Z,20.93
2023-03-18T18:56:15.564Z,19.40
2023-03-18T19:01:23.377Z,16.63
2023-03-18T19:06:33.460Z,19.17
2023-03-18T19:11:48.470Z,18.63
2023-03-18T19:16:54.456Z,17.70
2023-03-18T19:22:10.318Z,21.27
2023-03-18T19:27:21.965Z,19.20
2023-03-18T19:32:31.691Z,19.90
2023-03-18T19:37:44.831Z,21.73
2023-03-18T19:42:50.241Z,22.17
2023-03-18T19:47:57.430Z,18.23
2023-03-18T19:53:15.154Z,21.30
2023-03-18T19:58:30.405Z,19.67
2023-03-18T20:03:36.093Z,19.03
2023-03-18T20:08:46.219Z,20.87
2023-03-18T20:13:56.370Z,20.00
2023-03-18T20:19:03.394Z,21.37
2023-03-18T20:24:19.916Z,21.83
2023-03-18T20:29:29.875Z,21.50
2023-03-18T20:34:38.514Z,20.53
2023-03-18T20:39:46.410Z,24.33
2023-03-18T20:44:52.663Z,20.87
2023-03-18T20:49:57.963Z,19.67
2023-03-18T20:55:08.040Z,19.70
2023-03-18T21:00:18.913Z,21.97
2023-03-18T21:05:25.561Z,21.17
2023-03-18T21:10:34.999Z,24.97
2023-03-18T21:15:42.768Z,18.70
2023-03-18T21:20:48.400Z,23.23
2023-03-18T21:25:57.647Z,22.60
2023-03-18T21:31:05.312Z,22.93
2023-03-18T21:36:13.089Z,17.23
2023-03-18T21:41:27.177Z,19.73
2023-03-18T21:46:33.658Z,20.73
2023-03-18T21:51:40.498Z,20.60
2023-03-18T21:56:51.749Z,22.27
2023-03-18T22:02:00.445Z,17.43
2023-03-18T22:07:06.137Z,20.77
2023-03-18T22:12:19.130Z,18.17
2023-03-18T22:17:29.750Z,19.50
2023-03-18T22:22:40.522Z,18.33
2023-03-18T22:27:50.086Z,19.93
2023-03-18T22:32:56.394Z,24.73
2023-03-18T22:38:01.761Z,18.07
2023-03-18T22:43:21.663Z,18.17
2023-03-18T22:48:26.838Z,20.50
2023-03-18T22:53:36.471Z,18.43
2023-03-18T22:58:54.368Z,21.17
2023-03-18T23:04:00.454Z,21.70
2023-03-18T23:09:08.293Z,20.90
2023-03-18T23:14:19.717Z,21.63
2023-03-18T23:19:27.332Z,22.90
2023-03-18T23:24:33.093Z,23.37
2023-03-18T23:29:43.483Z,22.60
2023-03-18T23:34:49.767Z,22.90
2023-03-18T23:39:57.057Z,18.87
2023-03-18T23:45:07.697Z,18.53
2023-03-18T23:50:14.554Z,20.17
2023-03-18T23:55:33.718Z,20.53
